Time,TemperatureF,DewpointF,PressureIn,WindDirection,WindDirectionDegrees,WindSpeedMPH,WindSpeedGustMPH,Humidity,HourlyPrecipIn,Conditions,Clouds,dailyrainin,SolarRadiationWatts/m^2,SoftwareType,DateUTC
2013-09-06 00:07:00,88.7,51.0,29.83,SW,232,3.0,6.0,27,0.00,,,0.00,0,weatherlink.com 1.10,2013-09-06 07:07:00,
2013-09-06 00:23:00,87.7,52.0,29.84,SW,230,1.0,4.0,29,0.00,,,0.00,0,weatherlink.com 1.10,2013-09-06 07:23:00,
2013-09-06 00:38:00,86.8,52.0,29.83,SW,230,2.0,2.0,30,0.00,,,0.00,0,weatherlink.com 1.10,2013-09-06 07:38:00,
2013-09-06 00:53:00,86.0,52.0,29.84,SW,230,0.0,0.0,31,0.00,,,0.00,0,weatherlink.com 1.10,2013-09-06 07:53:00,
2013-09-06 01:08:00,84.8,52.0,29.83,SW,230,0.0,2.0,32,0.00,,,0.00,0,weatherlink.com 1.10,2013-09-06 08:08:00,
2013-09-06 01:23:00,83.8,52.0,29.83,SW,230,0.0,1.0,33,0.00,,,0.00,0,weatherlink.com 1.10,2013-09-06 08:23:00,
2013-09-06 01:38:00,83.2,53.0,29.83,SW,230,0.0,2.0,35,0.00,,,0.00,0,weatherlink.com 1.10,2013-09-06 08:38:00,
2013-09-06 01:53:00,82.0,53.0,29.83,SW,230,1.0,2.0,37,0.00,,,0.00,0,weatherlink.com 1.10,2013-09-06 08:53:00,
2013-09-06 02:08:00,81.8,52.0,29.83,SW,230,0.0,1.0,36,0.00,,,0.00,0,weatherlink.com 1.10,2013-09-06 09:08:00,
2013-09-06 02:23:00,81.2,54.0,29.83,SW,230,2.0,3.0,39,0.00,,,0.00,0,weatherlink.com 1.10,2013-09-06 09:23:00,
2013-09-06 02:38:00,79.5,54.0,29.83,SW,229,0.0,2.0,42,0.00,,,0.00,0,weatherlink.com 1.10,2013-09-06 09:38:00,
2013-09-06 02:53:00,78.7,55.0,29.83,SW,229,0.0,1.0,44,0.00,,,0.00,0,weatherlink.com 1.10,2013-09-06 09:53:00,
2013-09-06 03:08:00,77.7,55.0,29.82,SW,229,1.0,2.0,45,0.00,,,0.00,0,weatherlink.com 1.10,2013-09-06 10:08:00,
2013-09-06 03:23:00,77.4,54.0,29.82,SW,229,0.0,1.0,45,0.00,,,0.00,0,weatherlink.com 1.10,2013-09-06 10:23:00,
2013-09-06 03:38:00,77.9,54.0,29.82,SW,229,0.0,1.0,44,0.00,,,0.00,0,weatherlink.com 1.10,2013-09-06 10:38:00,
2013-09-06 03:53:00,77.4,54.0,29.82,SW,229,1.0,1.0,44,0.00,,,0.00,0,weatherlink.com 1.10,2013-09-06 10:53:00,
2013-09-06 04:08:00,76.1,56.0,29.82,SW,229,0.0,1.0,50,0.00,,,0.00,0,weatherlink.com 1.10,2013-09-06 11:08:00,
2013-09-06 04:23:00,74.8,56.0,29.82,SW,229,0.0,2.0,52,0.00,,,0.00,0,weatherlink.com 1.10,2013-09-06 11:23:00,
2013-09-06 04:38:00,74.4,56.0,29.82,SW,229,0.0,1.0,52,0.00,,,0.00,0,weatherlink.com 1.10,2013-09-06 11:38:00,
2013-09-06 04:53:00,74.7,55.0,29.83,SW,229,0.0,1.0,50,0.00,,,0.00,0,weatherlink.com 1.10,2013-09-06 11:53:00,
2013-09-06 05:08:00,74.7,56.0,29.83,SW,230,0.0,5.0,52,0.00,,,0.00,0,weatherlink.com 1.10,2013-09-06 12:08:00,
2013-09-06 05:23:00,74.7,55.0,29.82,SW,231,1.0,3.0,51,0.00,,,0.00,0,weatherlink.com 1.10,2013-09-06 12:23:00,
2013-09-06 05:38:00,74.4,56.0,29.83,SW,231,0.0,1.0,53,0.00,,,0.00,0,weatherlink.com 1.10,2013-09-06 12:38:00,
2013-09-06 05:53:00,73.1,56.0,29.83,SW,231,1.0,1.0,56,0.00,,,0.00,0,weatherlink.com 1.10,2013-09-06 12:53:00,
2013-09-06 06:08:00,71.8,56.0,29.84,SW,230,0.0,3.0,58,0.00,,,0.00,9,weatherlink.com 1.10,2013-09-06 13:08:00,
2013-09-06 06:24:00,71.3,57.0,29.84,SW,230,0.0,1.0,60,0.00,,,0.00,23,weatherlink.com 1.10,2013-09-06 13:24:00,
2013-09-06 06:39:00,73.0,56.0,29.85,SW,232,4.0,4.0,56,0.00,,,0.00,69,weatherlink.com 1.10,2013-09-06 13:39:00,
2013-09-06 06:54:00,75.8,57.0,29.85,SW,232,1.0,4.0,53,0.00,,,0.00,111,weatherlink.com 1.10,2013-09-06 13:54:00,
2013-09-06 07:09:00,76.6,58.0,29.85,SW,232,1.0,3.0,52,0.00,,,0.00,47,weatherlink.com 1.10,2013-09-06 14:09:00,
2013-09-06 07:24:00,76.8,58.0,29.86,SW,232,0.0,4.0,52,0.00,,,0.00,158,weatherlink.com 1.10,2013-09-06 14:24:00,
2013-09-06 07:39:00,76.9,58.0,29.86,SW,232,0.0,2.0,53,0.00,,,0.00,130,weatherlink.com 1.10,2013-09-06 14:39:00,
2013-09-06 07:54:00,78.4,58.0,29.87,SW,232,0.0,1.0,50,0.00,,,0.00,114,weatherlink.com 1.10,2013-09-06 14:54:00,
2013-09-06 08:09:00,79.9,57.0,29.87,SW,232,0.0,1.0,46,0.00,,,0.00,392,weatherlink.com 1.10,2013-09-06 15:09:00,
2013-09-06 08:24:00,82.4,57.0,29.87,SW,232,0.0,1.0,42,0.00,,,0.00,438,weatherlink.com 1.10,2013-09-06 15:24:00,
2013-09-06 08:39:00,85.5,57.0,29.87,SW,232,2.0,4.0,38,0.00,,,0.00,476,weatherlink.com 1.10,2013-09-06 15:39:00,
2013-09-06 08:54:00,87.8,56.0,29.87,SW,232,0.0,3.0,34,0.00,,,0.00,531,weatherlink.com 1.10,2013-09-06 15:54:00,
2013-09-06 09:09:00,90.4,55.0,29.87,SW,232,1.0,3.0,30,0.00,,,0.00,577,weatherlink.com 1.10,2013-09-06 16:09:00,
2013-09-06 09:24:00,92.0,55.0,29.87,SW,232,1.0,3.0,28,0.00,,,0.00,519,weatherlink.com 1.10,2013-09-06 16:24:00,
2013-09-06 09:39:00,92.9,54.0,29.87,SW,232,0.0,3.0,27,0.00,,,0.00,383,weatherlink.com 1.10,2013-09-06 16:39:00,
2013-09-06 09:54:00,93.5,54.0,29.87,SW,221,1.0,6.0,26,0.00,,,0.00,236,weatherlink.com 1.10,2013-09-06 16:54:00,
2013-09-06 10:09:00,94.0,54.0,29.87,SSW,205,2.0,4.0,26,0.00,,,0.00,311,weatherlink.com 1.10,2013-09-06 17:09:00,
2013-09-06 10:24:00,94.3,53.0,29.86,SSW,203,0.0,3.0,25,0.00,,,0.00,371,weatherlink.com 1.10,2013-09-06 17:24:00,
2013-09-06 10:39:00,95.4,53.0,29.86,South,191,0.0,4.0,24,0.00,,,0.00,378,weatherlink.com 1.10,2013-09-06 17:39:00,
2013-09-06 10:54:00,96.0,54.0,29.86,South,171,2.0,4.0,24,0.00,,,0.00,376,weatherlink.com 1.10,2013-09-06 17:54:00,
2013-09-06 11:09:00,96.5,53.0,29.86,South,171,0.0,4.0,23,0.00,,,0.00,622,weatherlink.com 1.10,2013-09-06 18:09:00,
2013-09-06 11:24:00,96.6,53.0,29.85,SSE,164,0.0,3.0,23,0.00,,,0.00,439,weatherlink.com 1.10,2013-09-06 18:24:00,
2013-09-06 11:39:00,99.4,54.0,29.85,South,175,3.0,5.0,22,0.00,,,0.00,970,weatherlink.com 1.10,2013-09-06 18:39:00,
2013-09-06 11:55:00,97.6,54.0,29.84,East,88,3.0,9.0,23,0.00,,,0.00,214,weatherlink.com 1.10,2013-09-06 18:55:00,
2013-09-06 12:10:00,96.4,54.0,29.84,East,88,1.0,6.0,24,0.00,,,0.00,250,weatherlink.com 1.10,2013-09-06 19:10:00,
2013-09-06 12:25:00,96.4,54.0,29.83,South,186,5.0,9.0,24,0.00,,,0.00,318,weatherlink.com 1.10,2013-09-06 19:25:00,
2013-09-06 12:40:00,96.5,54.0,29.82,South,187,0.0,7.0,24,0.00,,,0.00,315,weatherlink.com 1.10,2013-09-06 19:40:00,
2013-09-06 12:55:00,98.8,54.0,29.81,SSW,193,4.0,8.0,22,0.00,,,0.00,1005,weatherlink.com 1.10,2013-09-06 19:55:00,
2013-09-06 13:10:00,101.5,55.0,29.80,SSW,196,3.0,8.0,21,0.00,,,0.00,879,weatherlink.com 1.10,2013-09-06 20:10:00,
2013-09-06 13:25:00,102.4,53.0,29.79,East,88,8.0,11.0,19,0.00,,,0.00,921,weatherlink.com 1.10,2013-09-06 20:25:00,
2013-09-06 13:40:00,101.4,52.0,29.79,ENE,68,3.0,11.0,19,0.00,,,0.00,911,weatherlink.com 1.10,2013-09-06 20:40:00,
2013-09-06 13:55:00,100.7,53.0,29.79,ESE,123,2.0,12.0,20,0.00,,,0.00,360,weatherlink.com 1.10,2013-09-06 20:55:00,
2013-09-06 14:10:00,97.9,55.0,29.77,NNE,13,4.0,9.0,24,0.00,,,0.00,160,weatherlink.com 1.10,2013-09-06 21:10:00,
2013-09-06 14:25:00,79.6,62.0,29.82,SE,134,13.0,33.0,56,0.05,,,0.05,42,weatherlink.com 1.10,2013-09-06 21:25:00,
2013-09-06 14:40:00,71.1,61.0,29.79,SSW,200,8.0,35.0,71,0.44,,,0.44,39,weatherlink.com 1.10,2013-09-06 21:40:00,
2013-09-06 14:55:00,70.9,65.0,29.79,NNE,17,7.0,8.0,81,0.46,,,0.46,51,weatherlink.com 1.10,2013-09-06 21:55:00,
2013-09-06 15:10:00,74.4,67.0,29.78,North,355,3.0,6.0,78,0.46,,,0.46,97,weatherlink.com 1.10,2013-09-06 22:10:00,
2013-09-06 15:25:00,76.2,68.0,29.77,North,355,2.0,2.0,75,0.38,,,0.46,139,weatherlink.com 1.10,2013-09-06 22:25:00,
2013-09-06 15:52:00,81.5,68.0,29.75,West,266,0.0,5.0,64,0.00,,,0.46,141,weatherlink.com 1.10,2013-09-06 22:52:00,
2013-09-06 16:09:00,83.9,66.0,29.75,West,265,0.0,3.0,56,0.00,,,0.46,469,weatherlink.com 1.10,2013-09-06 23:09:00,
2013-09-06 16:24:00,86.0,66.0,29.75,SSE,149,1.0,4.0,52,0.00,,,0.46,408,weatherlink.com 1.10,2013-09-06 23:24:00,
2013-09-06 16:39:00,88.9,66.0,29.75,SSE,149,1.0,4.0,47,0.00,,,0.46,350,weatherlink.com 1.10,2013-09-06 23:39:00,
2013-09-06 16:55:00,91.0,65.0,29.74,SSE,150,0.0,3.0,42,0.00,,,0.46,274,weatherlink.com 1.10,2013-09-06 23:55:00,
2013-09-06 17:09:00,91.7,63.0,29.74,SE,130,4.0,9.0,38,0.00,,,0.46,178,weatherlink.com 1.10,2013-09-07 00:09:00,
2013-09-06 17:24:00,91.4,59.0,29.74,SSE,153,4.0,15.0,34,0.00,,,0.46,102,weatherlink.com 1.10,2013-09-07 00:24:00,
2013-09-06 17:40:00,91.5,60.0,29.75,SE,125,3.0,11.0,35,0.00,,,0.46,107,weatherlink.com 1.10,2013-09-07 00:40:00,
2013-09-06 17:55:00,90.6,62.0,29.77,SE,126,2.0,9.0,38,0.00,,,0.46,60,weatherlink.com 1.10,2013-09-07 00:55:00,
2013-09-06 18:10:00,89.2,60.0,29.76,SE,127,1.0,5.0,37,0.00,,,0.46,39,weatherlink.com 1.10,2013-09-07 01:10:00,
2013-09-06 18:25:00,88.2,62.0,29.77,NNE,15,3.0,6.0,41,0.00,,,0.46,5,weatherlink.com 1.10,2013-09-07 01:25:00,
2013-09-06 18:40:00,87.5,59.0,29.77,NNE,15,0.0,3.0,38,0.00,,,0.46,0,weatherlink.com 1.10,2013-09-07 01:40:00,
2013-09-06 18:55:00,86.7,60.0,29.77,NNE,15,0.0,1.0,41,0.00,,,0.46,0,weatherlink.com 1.10,2013-09-07 01:55:00,
2013-09-06 19:10:00,84.7,62.0,29.78,NNE,15,0.0,1.0,46,0.01,,,0.47,0,weatherlink.com 1.10,2013-09-07 02:10:00,
2013-09-06 19:25:00,83.2,61.0,29.79,NNE,15,0.0,1.0,47,0.01,,,0.47,0,weatherlink.com 1.10,2013-09-07 02:25:00,
2013-09-06 19:40:00,82.8,61.0,29.79,NNE,15,0.0,3.0,47,0.01,,,0.47,0,weatherlink.com 1.10,2013-09-07 02:40:00,
2013-09-06 19:55:00,82.2,62.0,29.80,NNE,15,0.0,1.0,51,0.01,,,0.47,0,weatherlink.com 1.10,2013-09-07 02:55:00,
2013-09-06 20:10:00,81.5,65.0,29.82,NNE,15,3.0,5.0,57,0.00,,,0.47,0,weatherlink.com 1.10,2013-09-07 03:10:00,
2013-09-06 20:25:00,82.5,61.0,29.83,SE,144,1.0,12.0,49,0.00,,,0.47,0,weatherlink.com 1.10,2013-09-07 03:25:00,
2013-09-06 20:40:00,81.8,62.0,29.85,SSE,148,0.0,6.0,51,0.00,,,0.47,0,weatherlink.com 1.10,2013-09-07 03:40:00,
2013-09-06 20:55:00,80.9,63.0,29.86,ENE,77,2.0,5.0,54,0.00,,,0.47,0,weatherlink.com 1.10,2013-09-07 03:55:00,
2013-09-06 21:10:00,80.1,62.0,29.87,ESE,113,5.0,7.0,55,0.00,,,0.47,0,weatherlink.com 1.10,2013-09-07 04:10:00,
2013-09-06 21:25:00,80.0,62.0,29.88,ESE,113,2.0,7.0,54,0.00,,,0.47,0,weatherlink.com 1.10,2013-09-07 04:25:00,
2013-09-06 21:40:00,79.2,62.0,29.87,ESE,113,0.0,1.0,56,0.00,,,0.47,0,weatherlink.com 1.10,2013-09-07 04:40:00,
2013-09-06 21:55:00,78.7,62.0,29.87,ESE,113,0.0,4.0,56,0.00,,,0.47,0,weatherlink.com 1.10,2013-09-07 04:55:00,
2013-09-06 22:10:00,78.4,62.0,29.86,ESE,113,0.0,3.0,57,0.00,,,0.47,0,weatherlink.com 1.10,2013-09-07 05:10:00,
2013-09-06 22:25:00,78.1,62.0,29.86,ESE,113,0.0,2.0,57,0.00,,,0.47,0,weatherlink.com 1.10,2013-09-07 05:25:00,
2013-09-06 22:40:00,77.3,63.0,29.87,ESE,113,0.0,1.0,61,0.00,,,0.47,0,weatherlink.com 1.10,2013-09-07 05:40:00,
2013-09-06 22:55:00,77.0,62.0,29.89,ESE,115,2.0,5.0,60,0.00,,,0.47,0,weatherlink.com 1.10,2013-09-07 05:55:00,
2013-09-06 23:10:00,77.0,62.0,29.89,ESE,117,0.0,3.0,61,0.00,,,0.47,0,weatherlink.com 1.10,2013-09-07 06:10:00,
2013-09-06 23:25:00,76.8,63.0,29.91,ESE,117,3.0,4.0,62,0.00,,,0.47,0,weatherlink.com 1.10,2013-09-07 06:25:00,
2013-09-06 23:40:00,77.0,61.0,29.91,ENE,63,0.0,5.0,59,0.00,,,0.47,0,weatherlink.com 1.10,2013-09-07 06:40:00,
2013-09-06 23:55:00,76.8,62.0,29.91,ENE,58,2.0,6.0,61,0.00,,,0.47,0,weatherlink.com 1.10,2013-09-07 06:55:00,